Bandana, Kentucky
Current Conditions -  °F | °C
As of 12:55 PM on Friday 21 Nov 2014 (Local Time) from KM30 Reporting Station
Broken Clouds Broken Clouds  
Wind Chill: 42°   Ceiling: 4100
Heat Index: 46°   Visibility: 10mi
Dew Point: 25°   Wind: 9mph
Humidity: 43%   Direction: 100°E
Pressure: 30.37"   Gusts: NA
Location:  37.15°N, 88.95°W
Report Text: KM30 211855Z AUTO 10008KT 10SM BKN041 08/M04 A3037 RMK AO2 T00791039
Loading
Personal Weather Stations






























Interactive Weather Map New forecast layout! Learn more

10-Day Weather Forecast

Advertisements
Track Severe Weather on mobile